Time;durP1;ratioP1;P1;durP2;ratioP2;P2;SDS_P1;SDS_P2;PMS_P1;PMS_P2;Temp;Humidity;BMP_temperature;BMP_pressure;BME280_temperature;BME280_humidity;BME280_pressure;Samples;Min_cycle;Max_cycle;Signal;HPM_P1;HPM_P2
2022/12/23 00:01:28;;;;;;;0.20;0.20;;;;;;;9.89;100.00;100276.69;10422302;28;20103;-64
2022/12/23 00:06:30;;;;;;;0.25;0.25;;;;;;;9.84;100.00;100280.41;10455490;28;20064;-64
2022/12/23 00:11:32;;;;;;;0.98;0.98;;;;;;;9.84;100.00;100280.41;10456915;28;20049;-64
2022/12/23 00:16:36;;;;;;;5.20;3.40;;;;;;;9.78;100.00;100293.03;10455904;28;20048;-64
2022/12/23 00:21:38;;;;;;;4.75;1.85;;;;;;;9.79;100.00;100292.94;10455234;28;20555;-64
2022/12/23 00:26:40;;;;;;;0.43;0.43;;;;;;;9.81;100.00;100295.44;10456665;28;20087;-64
2022/12/23 00:31:43;;;;;;;1.13;1.02;;;;;;;9.69;100.00;100310.13;10453992;28;20381;-64
2022/12/23 00:36:45;;;;;;;4.63;2.20;;;;;;;9.68;100.00;100316.28;10455776;28;20053;-64
2022/12/23 00:52:49;;;;;;;0.20;0.20;;;;;;;9.83;100.00;100327.56;10434762;28;20061;-64
2022/12/23 00:57:51;;;;;;;0.73;0.73;;;;;;;9.82;100.00;100321.50;10455956;28;20048;-64
2022/12/23 01:08:15;;;;;;;1.13;0.97;;;;;;;9.84;100.00;100337.94;10455949;28;20048;-64
2022/12/23 01:13:17;;;;;;;1.48;1.08;;;;;;;9.89;100.00;100349.91;10454815;28;20170;-64
2022/12/23 01:18:20;;;;;;;3.47;2.70;;;;;;;9.83;100.00;100349.34;10456517;28;20048;-64
2022/12/23 01:23:22;;;;;;;10.23;2.78;;;;;;;9.74;100.00;100359.50;10462149;28;20049;-64
2022/12/23 01:28:25;;;;;;;0.32;0.32;;;;;;;9.75;100.00;100367.28;10462921;28;20099;-64
2022/12/23 01:33:27;;;;;;;0.30;0.30;;;;;;;9.88;100.00;100369.13;10444115;28;20049;-64
2022/12/23 01:38:30;;;;;;;0.70;0.70;;;;;;;9.75;100.00;100363.78;10462444;28;20045;-64
2022/12/23 01:43:45;;;;;;;0.20;0.20;;;;;;;9.74;100.00;100368.19;10461340;28;20056;-64
2022/12/23 01:48:50;;;;;;;1.90;1.40;;;;;;;9.67;100.00;100372.13;10443292;28;20057;-64
2022/12/23 01:53:59;;;;;;;2.15;1.42;;;;;;;9.69;100.00;100377.25;10461200;28;20060;-64
2022/12/23 01:59:06;;;;;;;2.88;2.75;;;;;;;9.59;100.00;100380.41;10441123;28;20056;-64
2022/12/23 02:04:11;;;;;;;0.30;0.30;;;;;;;9.79;100.00;100379.22;10461596;28;20045;-64
2022/12/23 02:09:17;;;;;;;0.20;0.20;;;;;;;9.79;100.00;100394.91;10443160;28;20056;-65
2022/12/23 02:19:58;;;;;;;0.50;0.50;;;;;;;9.94;100.00;100405.38;10437870;28;20049;-64
2022/12/23 02:25:19;;;;;;;9.93;6.18;;;;;;;9.68;100.00;100407.75;10460589;28;20044;-64
2022/12/23 02:30:47;;;;;;;1.33;1.02;;;;;;;9.73;100.00;100415.34;10459388;28;20060;-64
2022/12/23 02:36:16;;;;;;;1.85;1.35;;;;;;;9.84;100.00;100428.63;10441734;28;20053;-64
2022/12/23 02:41:28;;;;;;;1.15;1.15;;;;;;;9.83;100.00;100435.63;10457614;28;20053;-64
2022/12/23 02:46:45;;;;;;;0.70;0.70;;;;;;;9.77;100.00;100433.38;10458258;28;20045;-64
2022/12/23 02:51:51;;;;;;;8.00;3.22;;;;;;;9.65;100.00;100444.56;10441918;28;20144;-64
2022/12/23 02:56:55;;;;;;;0.38;0.38;;;;;;;9.82;100.00;100448.78;10441707;28;20044;-64
2022/12/23 03:01:59;;;;;;;9.75;3.78;;;;;;;9.59;100.00;100461.44;10439535;28;20048;-64
2022/12/23 03:07:01;;;;;;;0.45;0.45;;;;;;;9.68;100.00;100480.94;10457636;28;20399;-64
2022/12/23 03:12:21;;;;;;;2.38;1.88;;;;;;;9.76;100.00;100485.75;10459419;28;20155;-64
2022/12/23 03:17:30;;;;;;;6.13;2.60;;;;;;;9.61;100.00;100475.25;10440253;28;20052;-64
2022/12/23 03:22:39;;;;;;;0.20;0.20;;;;;;;9.73;100.00;100476.28;10456613;28;20412;-64
2022/12/23 03:27:54;;;;;;;8.43;2.75;;;;;;;9.67;100.00;100474.06;10440663;28;20041;-64
2022/12/23 03:33:00;;;;;;;0.22;0.22;;;;;;;9.76;100.00;100465.66;10458099;28;20052;-64
2022/12/23 03:38:03;;;;;;;3.08;1.90;;;;;;;9.69;100.00;100460.91;10439276;28;20056;-64
2022/12/23 03:43:15;;;;;;;5.68;2.05;;;;;;;9.74;100.00;100459.69;10438880;28;20057;-64
2022/12/23 03:48:21;;;;;;;0.20;0.20;;;;;;;9.73;100.00;100457.16;10439978;28;20048;-64
2022/12/23 03:53:32;;;;;;;1.65;0.45;;;;;;;9.65;100.00;100468.09;10438801;28;20103;-64
2022/12/23 03:58:36;;;;;;;1.55;1.33;;;;;;;9.51;100.00;100468.88;10422973;28;20107;-64
2022/12/23 04:04:06;;;;;;;0.85;0.85;;;;;;;9.53;100.00;100474.00;10439941;28;20057;-64
2022/12/23 04:09:09;;;;;;;2.15;1.50;;;;;;;9.48;100.00;100485.59;10438689;28;20067;-64
2022/12/23 04:14:19;;;;;;;0.20;0.20;;;;;;;9.67;100.00;100479.28;10438604;28;20408;-64
2022/12/23 04:19:22;;;;;;;1.25;0.82;;;;;;;9.62;100.00;100479.56;10438420;28;20044;-64
2022/12/23 04:24:24;;;;;;;0.80;0.70;;;;;;;9.69;100.00;100490.50;10456563;28;20472;-64
2022/12/23 04:29:27;;;;;;;4.63;1.45;;;;;;;9.60;100.00;100501.47;10455981;28;20481;-64
2022/12/23 04:34:29;;;;;;;10.32;3.10;;;;;;;9.41;100.00;100520.00;10454950;28;20586;-64
2022/12/23 04:39:31;;;;;;;2.58;2.47;;;;;;;9.58;100.00;100514.66;10453893;28;20049;-64
2022/12/23 04:44:34;;;;;;;0.73;0.73;;;;;;;9.57;100.00;100520.81;10455725;28;20439;-64
2022/12/23 04:49:36;;;;;;;0.30;0.30;;;;;;;9.41;100.00;100520.00;10438450;28;20103;-64
2022/12/23 04:54:38;;;;;;;0.55;0.55;;;;;;;9.21;100.00;100523.72;10459085;28;20041;-64
2022/12/23 04:59:47;;;;;;;0.30;0.30;;;;;;;9.29;100.00;100518.91;10462411;28;20095;-64
2022/12/23 05:04:49;;;;;;;0.38;0.38;;;;;;;9.33;100.00;100509.13;10462446;28;20059;-64
2022/12/23 05:09:52;;;;;;;1.13;1.13;;;;;;;9.38;100.00;100492.28;10421784;28;20458;-64
2022/12/23 05:14:54;;;;;;;0.95;0.95;;;;;;;9.29;100.00;100477.13;10422176;28;20049;-64
2022/12/23 05:19:56;;;;;;;0.20;0.20;;;;;;;9.45;100.00;100470.09;10444639;28;20045;-64
2022/12/23 05:24:59;;;;;;;1.27;0.75;;;;;;;9.45;100.00;100498.81;10463079;28;20049;-64
2022/12/23 05:30:02;;;;;;;0.45;0.45;;;;;;;9.52;100.00;100504.53;10462876;28;20053;-64
2022/12/23 05:35:05;;;;;;;0.30;0.30;;;;;;;9.46;100.00;100518.81;10442696;28;20507;-64
2022/12/23 05:40:08;;;;;;;0.75;0.30;;;;;;;9.37;100.00;100527.16;10443971;28;20048;-64
2022/12/23 05:45:11;;;;;;;1.55;0.85;;;;;;;9.31;100.00;100535.34;10444406;28;20405;-64
2022/12/23 05:50:13;;;;;;;0.20;0.20;;;;;;;9.43;100.00;100550.34;10461728;28;20404;-64
2022/12/23 05:55:15;;;;;;;0.20;0.20;;;;;;;9.37;100.00;100547.22;10460842;28;20045;-64
2022/12/23 06:00:18;;;;;;;0.75;0.65;;;;;;;9.17;100.00;100540.50;10460077;28;20096;-64
2022/12/23 06:05:20;;;;;;;0.55;0.55;;;;;;;9.21;100.00;100548.09;10449865;22;20053;-65
2022/12/23 06:10:23;;;;;;;0.30;0.30;;;;;;;9.36;100.00;100537.69;10419035;28;20060;-65
2022/12/23 06:15:26;;;;;;;2.58;0.50;;;;;;;9.42;100.00;100526.91;10418103;28;20049;-65
2022/12/23 06:20:28;;;;;;;0.17;0.17;;;;;;;9.57;100.00;100528.63;10418039;28;20095;-65
2022/12/23 06:25:30;;;;;;;0.20;0.20;;;;;;;9.55;100.00;100520.06;10419411;28;20373;-65
2022/12/23 06:30:33;;;;;;;0.20;0.20;;;;;;;9.59;100.00;100508.47;10418707;28;20489;-65
2022/12/23 06:35:35;;;;;;;1.13;1.02;;;;;;;9.55;100.00;100503.50;10417336;28;20045;-65
2022/12/23 06:40:37;;;;;;;1.42;1.42;;;;;;;9.46;100.00;100502.28;10418208;28;20056;-65
2022/12/23 06:45:40;;;;;;;0.10;0.10;;;;;;;9.46;100.00;100503.13;10418726;28;20053;-65
2022/12/23 06:50:43;;;;;;;0.10;0.10;;;;;;;9.44;100.00;100509.38;10416104;28;20137;-65
2022/12/23 06:55:45;;;;;;;0.20;0.20;;;;;;;9.37;100.00;100515.88;10418276;28;20128;-65
2022/12/23 07:00:47;;;;;;;0.20;0.20;;;;;;;9.61;100.00;100526.69;10415645;28;20084;-65
2022/12/23 07:05:50;;;;;;;0.20;0.20;;;;;;;9.62;100.00;100539.66;10417408;28;20053;-65
2022/12/23 07:11:00;;;;;;;0.20;0.20;;;;;;;9.71;100.00;100548.75;10417267;28;20103;-65
2022/12/23 07:16:08;;;;;;;0.20;0.20;;;;;;;9.64;100.00;100558.72;10416117;28;20095;-65
2022/12/23 07:21:11;;;;;;;0.20;0.20;;;;;;;9.63;100.00;100580.56;10416484;28;20045;-65
2022/12/23 07:26:27;;;;;;;0.38;0.38;;;;;;;9.40;100.00;100578.41;10417173;28;20045;-65
2022/12/23 07:31:30;;;;;;;0.20;0.20;;;;;;;9.60;100.00;100580.75;10415216;28;20053;-65
2022/12/23 07:36:32;;;;;;;0.20;0.20;;;;;;;9.45;100.00;100581.63;10416741;28;20083;-65
2022/12/23 07:41:35;;;;;;;0.15;0.15;;;;;;;9.62;100.00;100580.66;10415707;28;20049;-65
2022/12/23 07:46:37;;;;;;;0.28;0.28;;;;;;;9.43;100.00;100567.78;10416512;28;20060;-65
2022/12/23 07:51:40;;;;;;;0.40;0.40;;;;;;;9.46;100.00;100562.38;10415720;28;20474;-65
2022/12/23 07:56:42;;;;;;;0.20;0.20;;;;;;;9.35;100.00;100568.22;10414472;28;20475;-65
2022/12/23 08:01:44;;;;;;;0.20;0.20;;;;;;;9.54;100.00;100554.13;10414421;28;20049;-65
2022/12/23 08:06:47;;;;;;;0.20;0.20;;;;;;;9.56;100.00;100544.41;10414723;28;20488;-65
2022/12/23 08:11:50;;;;;;;0.20;0.20;;;;;;;9.44;100.00;100562.47;10430870;28;20049;-65
2022/12/23 08:16:52;;;;;;;0.20;0.20;;;;;;;9.55;100.00;100555.78;10415700;28;20061;-65
2022/12/23 08:21:54;;;;;;;0.20;0.20;;;;;;;9.63;100.00;100558.81;10414801;28;20054;-65
2022/12/23 08:26:57;;;;;;;0.20;0.20;;;;;;;9.52;100.00;100562.03;10414930;28;20057;-65
2022/12/23 08:31:59;;;;;;;0.20;0.20;;;;;;;9.65;100.00;100556.97;10423644;28;20081;-65
2022/12/23 08:37:01;;;;;;;1.17;1.17;;;;;;;9.58;100.00;100548.63;10422363;28;20049;-65
2022/12/23 08:42:04;;;;;;;0.10;0.10;;;;;;;9.45;100.00;100529.34;10422659;28;20065;-65
2022/12/23 08:47:06;;;;;;;0.22;0.22;;;;;;;9.42;100.00;100527.75;10422144;28;20046;-65
2022/12/23 08:52:09;;;;;;;0.20;0.20;;;;;;;9.59;100.00;100533.78;10422515;28;20484;-65
2022/12/23 08:57:12;;;;;;;0.30;0.30;;;;;;;9.59;100.00;100531.16;10422143;28;20049;-65
2022/12/23 09:02:14;;;;;;;0.45;0.45;;;;;;;9.43;100.00;100521.59;10422173;28;20049;-65
2022/12/23 09:07:17;;;;;;;0.10;0.10;;;;;;;9.70;100.00;100509.63;10421326;28;20077;-65
2022/12/23 09:12:19;;;;;;;0.20;0.20;;;;;;;9.77;100.00;100503.97;10422394;28;20107;-65
2022/12/23 09:17:21;;;;;;;83.78;7.55;;;;;;;9.62;100.00;100512.69;10419523;28;20472;-65
2022/12/23 09:22:24;;;;;;;1.00;1.00;;;;;;;9.57;100.00;100492.06;10398636;28;20717;-66
2022/12/23 09:27:26;;;;;;;0.70;0.70;;;;;;;9.66;100.00;100490.66;10419365;28;20045;-65
2022/12/23 09:32:28;;;;;;;1.13;1.13;;;;;;;9.78;100.00;100492.56;10436899;28;20053;-64
2022/12/23 09:37:30;;;;;;;0.20;0.20;;;;;;;9.72;100.00;100487.69;10435704;28;20046;-64
2022/12/23 09:43:10;;;;;;;0.32;0.32;;;;;;;9.98;100.00;100490.53;10418822;28;20045;-64
2022/12/23 09:48:15;;;;;;;0.20;0.20;;;;;;;9.84;100.00;100476.50;10419944;28;20096;-64
2022/12/23 09:53:20;;;;;;;0.30;0.30;;;;;;;9.67;100.00;100479.28;10418438;28;20045;-64
2022/12/23 09:58:30;;;;;;;1.65;1.00;;;;;;;9.51;100.00;100466.25;10434592;28;20538;-64
2022/12/23 10:04:06;;;;;;;1.13;1.13;;;;;;;9.44;100.00;100462.31;10416462;28;20092;-64
2022/12/23 10:09:09;;;;;;;0.30;0.30;;;;;;;9.48;100.00;100454.22;10432876;28;20076;-63
2022/12/23 10:14:29;;;;;;;0.20;0.20;;;;;;;9.70;100.00;100445.13;10426712;28;20096;-64
2022/12/23 10:19:52;;;;;;;0.20;0.20;;;;;;;9.78;100.00;100427.19;10432272;28;20038;-64
2022/12/23 10:24:55;;;;;;;22.02;20.05;;;;;;;9.83;100.00;100417.31;10413395;28;20049;-63
2022/12/23 10:30:18;;;;;;;0.30;0.30;;;;;;;9.77;100.00;100428.13;10404092;28;20562;-64
2022/12/23 10:35:42;;;;;;;0.20;0.20;;;;;;;9.96;100.00;100417.41;10415654;28;20037;-65
2022/12/23 10:40:47;;;;;;;0.20;0.20;;;;;;;9.62;100.00;100413.38;10417709;28;20053;-65
2022/12/23 10:46:26;;;;;;;0.20;0.20;;;;;;;9.89;100.00;100389.94;10417971;28;20069;-65
2022/12/23 10:51:50;;;;;;;0.30;0.30;;;;;;;9.69;100.00;100396.38;10414920;28;20045;-65
2022/12/23 10:56:53;;;;;;;7.57;7.05;;;;;;;9.76;100.00;100383.78;10417510;28;20084;-65
2022/12/23 11:02:04;;;;;;;0.43;0.43;;;;;;;9.64;100.00;100382.75;10415870;28;20053;-65
2022/12/23 11:07:09;;;;;;;11.40;1.23;;;;;;;9.71;100.00;100372.78;10415563;28;20053;-65
2022/12/23 11:12:44;;;;;;;0.20;0.20;;;;;;;9.52;100.00;100371.25;10414431;28;20413;-65
2022/12/23 11:18:02;;;;;;;0.20;0.20;;;;;;;9.61;100.00;100372.47;10432904;28;20053;-65
2022/12/23 11:23:08;;;;;;;4.95;3.05;;;;;;;9.34;100.00;100349.66;10430821;28;20053;-65
2022/12/23 11:28:14;;;;;;;0.20;0.20;;;;;;;9.34;100.00;100349.66;10432486;28;20052;-65
2022/12/23 11:33:48;;;;;;;1.35;0.55;;;;;;;9.60;100.00;100342.03;10432366;28;20049;-65
2022/12/23 11:38:57;;;;;;;0.35;0.35;;;;;;;9.61;100.00;100334.09;10430060;28;20056;-65
2022/12/23 11:44:17;;;;;;;0.20;0.20;;;;;;;9.68;100.00;100339.78;10416555;28;20060;-65
2022/12/23 11:49:23;;;;;;;0.20;0.20;;;;;;;9.84;100.00;100324.03;10415935;28;20471;-65
2022/12/23 11:54:25;;;;;;;3.30;2.15;;;;;;;9.57;100.00;100300.44;10413411;28;20489;-65
2022/12/23 11:59:37;;;;;;;0.28;0.28;;;;;;;9.66;100.00;100300.69;10412221;28;20041;-65
2022/12/23 12:04:40;;;;;;;0.20;0.20;;;;;;;9.56;100.00;100293.50;10410878;28;20057;-65
2022/12/23 12:09:44;;;;;;;0.20;0.20;;;;;;;9.54;100.00;100270.06;10409287;28;20451;-65
2022/12/23 12:14:50;;;;;;;0.10;0.10;;;;;;;9.79;100.00;100256.31;10412011;28;20160;-65
2022/12/23 12:20:00;;;;;;;0.17;0.17;;;;;;;9.63;100.00;100227.72;10413522;28;20045;-65
2022/12/23 12:25:16;;;;;;;0.20;0.20;;;;;;;9.57;100.00;100222.84;10413130;28;20103;-65
2022/12/23 12:30:19;;;;;;;0.25;0.25;;;;;;;9.54;100.00;100209.97;10414080;28;20386;-65
2022/12/23 12:35:36;;;;;;;0.82;0.82;;;;;;;9.52;100.00;100196.16;10414769;28;20056;-65
2022/12/23 12:40:43;;;;;;;1.25;0.85;;;;;;;9.40;100.00;100187.31;10413403;28;20054;-65
2022/12/23 12:46:04;;;;;;;0.20;0.20;;;;;;;9.45;100.00;100182.66;10413416;28;20046;-65
2022/12/23 12:51:23;;;;;;;0.20;0.20;;;;;;;9.21;100.00;100171.09;10414644;28;20057;-65
2022/12/23 12:56:39;;;;;;;0.20;0.20;;;;;;;9.35;100.00;100181.53;10412393;28;20400;-65
2022/12/23 13:02:14;;;;;;;0.20;0.20;;;;;;;9.53;100.00;100149.97;10413093;28;20049;-65
2022/12/23 13:07:33;;;;;;;1.92;1.83;;;;;;;9.24;100.00;100135.16;10397544;28;20077;-64
2022/12/23 13:13:01;;;;;;;0.30;0.30;;;;;;;9.26;100.00;100119.41;10411738;28;20049;-64
2022/12/23 13:18:23;;;;;;;7.03;2.60;;;;;;;9.27;100.00;100094.97;10412003;28;20050;-65
2022/12/23 13:23:51;;;;;;;0.13;0.13;;;;;;;9.17;100.00;100080.81;10419681;28;20057;-64
2022/12/23 13:29:20;;;;;;;0.20;0.20;;;;;;;9.29;100.00;100067.81;10418586;28;20045;-65
2022/12/23 13:34:54;;;;;;;5.00;2.30;;;;;;;9.10;100.00;100062.09;10381246;28;20057;-65
2022/12/23 13:40:16;;;;;;;1.55;1.05;;;;;;;9.04;100.00;100065.91;10399738;28;20045;-64
2022/12/23 13:45:20;;;;;;;0.90;0.88;;;;;;;9.02;100.00;100057.34;10378122;28;20053;-65
2022/12/23 13:50:37;;;;;;;1.20;0.52;;;;;;;9.35;100.00;100050.09;10419515;28;20053;-65
2022/12/23 13:56:10;;;;;;;1.77;1.33;;;;;;;9.17;100.00;100041.66;10420835;28;20060;-64
2022/12/23 14:01:15;;;;;;;0.80;0.60;;;;;;;9.15;100.00;100041.75;10418548;28;20082;-65
2022/12/23 14:06:41;;;;;;;3.83;2.08;;;;;;;9.22;100.00;100048.25;10414849;28;20477;-65
2022/12/23 14:11:44;;;;;;;1.08;0.95;;;;;;;9.34;100.00;100044.00;10419074;28;20057;-65
2022/12/23 14:17:07;;;;;;;1.00;1.00;;;;;;;9.40;100.00;100043.63;10417665;28;20053;-65
2022/12/23 14:22:27;;;;;;;0.80;0.60;;;;;;;9.42;100.00;100033.91;10418070;28;20484;-65
2022/12/23 14:28:16;;;;;;;0.20;0.20;;;;;;;9.44;100.00;100020.75;10418649;28;20057;-64
2022/12/23 14:33:27;;;;;;;0.20;0.20;;;;;;;9.93;100.00;100017.50;10391241;28;20045;-65
2022/12/23 14:38:31;;;;;;;0.20;0.20;;;;;;;9.45;100.00;100002.34;10417573;28;20045;-65
2022/12/23 14:43:53;;;;;;;0.30;0.30;;;;;;;9.49;100.00;99992.53;10415886;28;20049;-65
2022/12/23 14:48:58;;;;;;;0.30;0.30;;;;;;;9.40;100.00;99959.19;10418066;28;20412;-65
2022/12/23 14:54:37;;;;;;;0.30;0.30;;;;;;;9.66;100.00;99979.19;10416566;28;20078;-64
2022/12/23 14:59:45;;;;;;;11.60;2.58;;;;;;;9.33;100.00;99970.97;10417014;28;20056;-65
2022/12/23 15:04:53;;;;;;;0.28;0.28;;;;;;;9.28;100.00;99956.44;10413974;28;20058;-65
2022/12/23 15:09:57;;;;;;;0.35;0.35;;;;;;;9.40;100.00;99954.78;10417094;28;20095;-65
2022/12/23 15:15:17;;;;;;;0.85;0.85;;;;;;;9.17;100.00;99956.28;10416241;28;20057;-65
2022/12/23 15:20:22;;;;;;;0.32;0.32;;;;;;;9.16;100.00;99959.00;10419040;28;20053;-64
2022/12/23 15:25:32;;;;;;;1.55;1.00;;;;;;;8.85;100.00;99956.59;10443191;28;20049;-65
2022/12/23 15:30:45;;;;;;;0.20;0.20;;;;;;;8.89;100.00;99970.28;10412192;28;20049;-65
2022/12/23 15:35:49;;;;;;;0.25;0.25;;;;;;;9.08;100.00;99969.97;10414406;28;20053;-65
2022/12/23 15:41:00;;;;;;;0.47;0.38;;;;;;;9.06;100.00;99959.59;10457624;28;20048;-65
2022/12/23 15:46:18;;;;;;;0.15;0.15;;;;;;;9.04;100.00;99963.25;10456071;28;20435;-65
2022/12/23 15:51:33;;;;;;;4.72;0.85;;;;;;;8.81;100.00;99989.06;10440954;28;20507;-65
2022/12/23 15:56:58;;;;;;;0.20;0.20;;;;;;;9.07;100.00;99978.72;10413720;28;20053;-65
2022/12/23 16:02:30;;;;;;;0.20;0.20;;;;;;;9.41;100.00;99986.97;10411269;28;20060;-65
2022/12/23 16:08:09;;;;;;;0.20;0.20;;;;;;;9.47;100.00;99974.34;10404049;28;20104;-65
2022/12/23 16:13:19;;;;;;;0.20;0.20;;;;;;;9.59;100.00;99980.53;10410954;28;20059;-65
2022/12/23 16:18:31;;;;;;;0.30;0.30;;;;;;;9.37;100.00;99975.88;10409059;28;20151;-65
2022/12/23 16:23:36;;;;;;;0.20;0.20;;;;;;;9.20;100.00;99976.16;10402158;28;20111;-65
2022/12/23 16:28:44;;;;;;;0.20;0.20;;;;;;;9.18;100.00;99985.84;10414427;28;20046;-65
2022/12/23 16:33:48;;;;;;;0.20;0.20;;;;;;;9.29;100.00;99993.84;10447586;28;20115;-65
2022/12/23 16:38:59;;;;;;;0.10;0.10;;;;;;;9.35;100.00;99987.41;10413466;28;20065;-65
2022/12/23 16:44:02;;;;;;;0.20;0.20;;;;;;;9.32;100.00;99992.81;10402871;28;20049;-65
2022/12/23 16:49:09;;;;;;;0.25;0.25;;;;;;;9.27;100.00;99996.53;10394676;28;20087;-64
2022/12/23 16:54:14;;;;;;;0.35;0.35;;;;;;;9.41;100.00;100013.09;10420646;28;20053;-64
2022/12/23 16:59:17;;;;;;;0.10;0.10;;;;;;;9.47;100.00;100026.59;10430155;28;20081;-65
2022/12/23 17:04:19;;;;;;;1.35;1.35;;;;;;;9.52;100.00;100034.16;10420145;28;20061;-64
2022/12/23 17:09:22;;;;;;;1.02;1.00;;;;;;;9.65;100.00;100047.25;10421915;28;20049;-65
2022/12/23 17:14:24;;;;;;;0.20;0.20;;;;;;;9.70;100.00;100046.94;10419709;28;20095;-64
2022/12/23 17:19:27;;;;;;;0.82;0.82;;;;;;;9.63;100.00;100042.13;10419628;28;20045;-64
2022/12/23 17:24:30;;;;;;;4.57;2.75;;;;;;;9.74;100.00;100048.44;10439917;28;20057;-64
2022/12/23 17:29:32;;;;;;;15.15;4.68;;;;;;;9.90;100.00;100059.56;10418217;28;20041;-64
2022/12/23 17:34:35;;;;;;;18.77;7.28;;;;;;;10.04;100.00;100053.41;10419199;28;20062;-65
2022/12/23 17:39:37;;;;;;;1.40;1.30;;;;;;;10.11;100.00;100057.28;10419086;28;20049;-65
2022/12/23 17:44:40;;;;;;;3.83;2.30;;;;;;;10.22;100.00;100077.47;10419084;28;20061;-65
2022/12/23 17:49:43;;;;;;;3.38;2.92;;;;;;;10.13;100.00;100085.94;10406330;28;20069;-64
2022/12/23 17:54:47;;;;;;;3.83;1.73;;;;;;;10.32;100.00;100088.19;10430182;28;20111;-65
2022/12/23 17:59:51;;;;;;;1.80;1.77;;;;;;;10.33;100.00;100092.50;10415669;28;20100;-65
2022/12/23 18:04:54;;;;;;;26.10;4.10;;;;;;;10.45;100.00;100096.06;10419734;28;20053;-65
2022/12/23 18:09:56;;;;;;;1.08;1.08;;;;;;;10.54;100.00;100084.94;10419063;28;20052;-65
2022/12/23 18:14:59;;;;;;;0.30;0.30;;;;;;;10.52;100.00;100092.06;10418624;28;20101;-65
2022/12/23 18:20:02;;;;;;;2.05;1.67;;;;;;;10.49;100.00;100097.50;10424545;22;20053;-65
2022/12/23 18:25:05;;;;;;;6.03;1.90;;;;;;;10.42;100.00;100112.78;10392200;28;20049;-64
2022/12/23 18:30:08;;;;;;;2.05;1.85;;;;;;;10.45;100.00;100120.44;10402547;28;20077;-64
2022/12/23 18:35:25;;;;;;;5.80;1.55;;;;;;;10.43;100.00;100111.84;10417284;28;20476;-64
2022/12/23 18:40:28;;;;;;;10.70;3.03;;;;;;;10.45;100.00;100122.22;10406566;28;20053;-65
2022/12/23 18:45:38;;;;;;;4.40;1.08;;;;;;;10.38;100.00;100116.56;10376548;28;20053;-65
2022/12/23 18:50:41;;;;;;;6.90;1.58;;;;;;;10.40;100.00;100122.53;10398628;28;20447;-65
2022/12/23 18:55:44;;;;;;;1.95;1.85;;;;;;;10.47;100.00;100123.78;10402845;28;20050;-65
2022/12/23 19:00:47;;;;;;;2.10;0.68;;;;;;;10.47;100.00;100125.56;10416200;28;20048;-64
2022/12/23 19:05:50;;;;;;;0.38;0.38;;;;;;;10.37;100.00;100114.88;10414211;28;20599;-65
2022/12/23 19:10:53;;;;;;;0.50;0.50;;;;;;;10.29;100.00;100123.22;10388645;28;20397;-65
2022/12/23 19:15:56;;;;;;;3.20;2.05;;;;;;;10.37;100.00;100133.19;10404455;28;20096;-65
2022/12/23 19:21:03;;;;;;;4.45;2.58;;;;;;;10.36;100.00;100142.81;10414084;28;20568;-65
2022/12/23 19:26:05;;;;;;;0.68;0.68;;;;;;;10.29;100.00;100149.38;10409907;28;20058;-65
2022/12/23 19:31:12;;;;;;;8.77;3.10;;;;;;;10.39;100.00;100154.88;10396023;28;20452;-65
2022/12/23 19:36:18;;;;;;;8.77;2.58;;;;;;;10.35;100.00;100154.22;10405604;28;20053;-65
2022/12/23 19:41:21;;;;;;;1.00;0.98;;;;;;;10.47;100.00;100170.88;10399291;28;20107;-65
2022/12/23 19:46:23;;;;;;;10.20;3.80;;;;;;;10.35;100.00;100171.72;10415098;28;20534;-65
2022/12/23 19:51:26;;;;;;;0.93;0.93;;;;;;;10.35;100.00;100174.34;10416336;28;20045;-65
2022/12/23 19:56:29;;;;;;;4.72;1.80;;;;;;;10.34;100.00;100185.72;10398612;28;20049;-64
2022/12/23 20:01:31;;;;;;;12.70;2.78;;;;;;;10.44;100.00;100199.91;10415193;28;20049;-65
2022/12/23 20:06:37;;;;;;;2.40;1.48;;;;;;;10.34;100.00;100201.41;10414642;28;20485;-64
2022/12/23 20:11:44;;;;;;;26.50;4.15;;;;;;;10.37;100.00;100209.94;10415988;28;20046;-65
2022/12/23 20:16:47;;;;;;;0.35;0.35;;;;;;;10.30;100.00;100211.22;10414566;28;20056;-65
2022/12/23 20:21:49;;;;;;;6.32;1.55;;;;;;;10.37;100.00;100233.50;10413874;28;20059;-64
2022/12/23 20:26:52;;;;;;;2.75;2.35;;;;;;;10.21;100.00;100238.84;10434874;28;20095;-65
2022/12/23 20:31:54;;;;;;;8.05;3.03;;;;;;;10.30;100.00;100244.41;10452540;28;20053;-65
2022/12/23 20:36:56;;;;;;;4.45;2.05;;;;;;;10.20;100.00;100257.25;10423566;28;20547;-65
2022/12/23 20:41:59;;;;;;;6.80;0.73;;;;;;;10.26;100.00;100264.72;10392517;28;20049;-65
2022/12/23 20:47:01;;;;;;;0.30;0.30;;;;;;;10.28;100.00;100275.06;10426617;28;20049;-64
2022/12/23 20:52:04;;;;;;;4.03;1.67;;;;;;;10.12;100.00;100289.16;10428103;28;20081;-65
2022/12/23 20:57:06;;;;;;;0.50;0.50;;;;;;;10.07;100.00;100308.66;10410225;28;20042;-65
2022/12/23 21:02:13;;;;;;;0.20;0.20;;;;;;;10.11;100.00;100311.00;10426494;28;20052;-64
2022/12/23 21:07:16;;;;;;;1.10;0.63;;;;;;;10.06;100.00;100325.31;10428491;28;20128;-65
2022/12/23 21:12:18;;;;;;;2.03;1.58;;;;;;;10.03;100.00;100329.78;10426761;28;20551;-65
2022/12/23 21:17:22;;;;;;;0.20;0.20;;;;;;;10.08;100.00;100332.09;10427621;28;20055;-65
2022/12/23 21:22:25;;;;;;;15.63;2.08;;;;;;;10.03;100.00;100331.56;10426561;28;20061;-65
2022/12/23 21:27:27;;;;;;;19.85;1.33;;;;;;;10.00;100.00;100329.13;10427502;28;20163;-65
2022/12/23 21:32:29;;;;;;;0.88;0.75;;;;;;;9.97;100.00;100340.63;10425937;28;20059;-65
2022/12/23 21:37:31;;;;;;;0.50;0.50;;;;;;;9.86;100.00;100356.97;10420257;28;20386;-64
2022/12/23 21:42:34;;;;;;;0.40;0.40;;;;;;;9.91;100.00;100382.84;10419697;28;20095;-65
2022/12/23 21:47:36;;;;;;;3.33;1.05;;;;;;;9.78;100.00;100379.28;10420183;28;20103;-64
2022/12/23 21:52:39;;;;;;;0.20;0.20;;;;;;;9.71;100.00;100383.22;10418754;28;20677;-65
2022/12/23 21:57:41;;;;;;;3.35;0.55;;;;;;;9.58;100.00;100378.75;10419491;28;20045;-64
2022/12/23 22:02:43;;;;;;;2.05;0.77;;;;;;;9.63;100.00;100388.91;10418966;28;20534;-65
2022/12/23 22:07:46;;;;;;;0.20;0.20;;;;;;;9.71;100.00;100396.28;10419159;28;20140;-65
2022/12/23 22:12:48;;;;;;;6.65;1.55;;;;;;;9.76;100.00;100400.31;10410727;28;20404;-64
2022/12/23 22:17:51;;;;;;;0.15;0.15;;;;;;;9.74;100.00;100388.28;10419176;28;20091;-64
2022/12/23 22:22:53;;;;;;;0.13;0.13;;;;;;;9.74;100.00;100399.56;10421871;28;20060;-65
2022/12/23 22:27:55;;;;;;;3.47;0.95;;;;;;;9.75;100.00;100401.25;10400683;28;20037;-64
2022/12/23 22:32:58;;;;;;;21.23;1.33;;;;;;;9.73;100.00;100407.50;10427281;28;20385;-65
2022/12/23 22:38:00;;;;;;;7.00;2.67;;;;;;;9.75;100.00;100406.47;10414642;28;20520;-64
2022/12/23 22:43:02;;;;;;;0.10;0.10;;;;;;;9.78;100.00;100418.50;10416279;28;20480;-65
2022/12/23 22:48:05;;;;;;;1.55;1.00;;;;;;;9.76;100.00;100425.63;10409772;28;20052;-64
2022/12/23 22:53:08;;;;;;;9.85;3.15;;;;;;;9.64;100.00;100414.94;10418376;28;20049;-64
2022/12/23 22:58:10;;;;;;;0.20;0.20;;;;;;;9.67;100.00;100450.53;10376444;28;20048;-65
2022/12/23 23:03:13;;;;;;;1.25;0.40;;;;;;;9.59;100.00;100453.59;10392737;28;20061;-64
2022/12/23 23:08:15;;;;;;;0.63;0.40;;;;;;;9.48;100.00;100453.38;10406178;28;20080;-65
2022/12/23 23:13:17;;;;;;;1.25;1.15;;;;;;;9.43;100.00;100447.56;10415356;28;20045;-64
2022/12/23 23:18:20;;;;;;;0.73;0.30;;;;;;;9.44;100.00;100470.16;10404737;28;20042;-65
2022/12/23 23:23:22;;;;;;;3.40;2.47;;;;;;;9.44;100.00;100463.16;10390642;28;20059;-65
2022/12/23 23:28:24;;;;;;;1.83;0.75;;;;;;;9.49;100.00;100475.97;10389411;28;20041;-65
2022/12/23 23:33:27;;;;;;;2.38;0.98;;;;;;;9.54;100.00;100470.47;10373029;28;20041;-65
2022/12/23 23:38:29;;;;;;;1.65;0.85;;;;;;;9.55;100.00;100466.91;10414839;28;20566;-65
2022/12/23 23:43:31;;;;;;;3.05;1.23;;;;;;;9.52;100.00;100486.25;10408884;28;20103;-65
2022/12/23 23:48:34;;;;;;;9.13;5.78;;;;;;;9.53;100.00;100484.47;10380264;28;20042;-65
2022/12/23 23:53:36;;;;;;;1.17;0.90;;;;;;;9.71;100.00;100496.47;10399918;28;20439;-65